Time;durP1;ratioP1;P1;durP2;ratioP2;P2;SDS_P1;SDS_P2;PMS_P1;PMS_P2;Temp;Humidity;BMP_temperature;BMP_pressure;BME280_temperature;BME280_humidity;BME280_pressure;Samples;Min_cycle;Max_cycle;Signal;HPM_P1;HPM_P2
2021/04/29 00:02:24;;;;;;;0.10;0.10;;;14.60;61.00;;;;;;5059769;28;20028;-64
2021/04/29 00:04:54;;;;;;;0.10;0.10;;;14.60;61.10;;;;;;5060367;28;20028;-64
2021/04/29 00:07:20;;;;;;;0.17;0.10;;;14.50;61.00;;;;;;5062249;28;20029;-64
2021/04/29 00:09:49;;;;;;;0.30;0.10;;;14.50;61.30;;;;;;5063092;28;20590;-65
2021/04/29 00:12:18;;;;;;;0.73;0.17;;;14.60;61.30;;;;;;5058433;28;20033;-65
2021/04/29 00:14:48;;;;;;;0.10;0.10;;;14.50;62.00;;;;;;5063986;28;20406;-64
2021/04/29 00:17:13;;;;;;;0.20;0.10;;;14.50;61.70;;;;;;5057509;28;20067;-64
2021/04/29 00:19:43;;;;;;;0.17;0.10;;;14.60;61.50;;;;;;5066377;28;20060;-63
2021/04/29 00:22:14;;;;;;;0.20;0.20;;;14.60;61.70;;;;;;5060502;28;20033;-64
2021/04/29 00:24:46;;;;;;;0.15;0.10;;;14.60;62.00;;;;;;5062253;28;20048;-63
2021/04/29 00:27:14;;;;;;;0.10;0.10;;;14.60;61.90;;;;;;5065066;28;20029;-63
2021/04/29 00:29:42;;;;;;;1.25;0.20;;;14.60;61.70;;;;;;5061812;28;20132;-64
2021/04/29 00:32:12;;;;;;;0.20;0.20;;;14.60;61.70;;;;;;5060354;28;20436;-64
2021/04/29 00:34:42;;;;;;;0.75;0.20;;;14.60;61.90;;;;;;5062522;28;20024;-64
2021/04/29 00:37:15;;;;;;;0.30;0.30;;;14.60;61.70;;;;;;5066916;28;20424;-64
2021/04/29 00:39:43;;;;;;;0.20;0.20;;;14.60;61.70;;;;;;5064173;28;20490;-64
2021/04/29 00:42:12;;;;;;;0.20;0.20;;;14.60;61.50;;;;;;5061989;28;20036;-64
2021/04/29 00:44:40;;;;;;;0.10;0.10;;;14.60;61.50;;;;;;5065781;28;20032;-64
2021/04/29 00:47:08;;;;;;;0.45;0.17;;;14.50;61.80;;;;;;5063864;28;20193;-64
2021/04/29 00:49:44;;;;;;;0.30;0.20;;;14.50;62.10;;;;;;5063680;28;20557;-64
2021/04/29 00:52:12;;;;;;;0.15;0.15;;;14.60;62.30;;;;;;5061171;28;20044;-64
2021/04/29 00:54:42;;;;;;;0.20;0.20;;;14.50;61.70;;;;;;5063167;28;20025;-64
2021/04/29 00:57:08;;;;;;;0.40;0.28;;;14.50;61.90;;;;;;5067264;28;20040;-64
2021/04/29 00:59:36;;;;;;;0.20;0.20;;;14.50;62.00;;;;;;5062654;28;20043;-64
2021/04/29 01:02:07;;;;;;;0.20;0.20;;;14.50;62.10;;;;;;5055397;28;20382;-64
2021/04/29 01:05:10;;;;;;;0.22;0.22;;;14.50;63.30;;;;;;5060437;28;20029;-64
2021/04/29 01:07:41;;;;;;;0.30;0.30;;;14.40;63.80;;;;;;5020742;28;20032;-64
2021/04/29 01:10:23;;;;;;;0.40;0.30;;;14.40;63.40;;;;;;5061768;28;20036;-65
2021/04/29 01:13:23;;;;;;;0.45;0.30;;;14.40;64.30;;;;;;5062795;28;20025;-64
2021/04/29 01:15:53;;;;;;;0.20;0.20;;;14.40;64.10;;;;;;5060350;28;20040;-64
2021/04/29 01:18:27;;;;;;;0.50;0.40;;;14.30;63.30;;;;;;5056911;28;20408;-64
2021/04/29 01:21:04;;;;;;;0.73;0.40;;;14.30;63.70;;;;;;5059326;28;20032;-64
2021/04/29 01:23:36;;;;;;;0.40;0.40;;;14.30;64.50;;;;;;5062607;28;20073;-64
2021/04/29 01:26:14;;;;;;;0.40;0.40;;;14.30;63.90;;;;;;5063145;28;20032;-64
2021/04/29 01:28:42;;;;;;;0.40;0.40;;;14.20;64.60;;;;;;5066036;28;20029;-64
2021/04/29 01:31:11;;;;;;;0.70;0.60;;;14.20;63.80;;;;;;5064813;28;20055;-64
2021/04/29 01:33:42;;;;;;;0.93;0.75;;;14.20;64.30;;;;;;5060510;28;20037;-64
2021/04/29 01:36:13;;;;;;;0.80;0.70;;;14.20;64.70;;;;;;5054008;28;20032;-64
2021/04/29 01:38:41;;;;;;;0.80;0.80;;;14.20;65.30;;;;;;5063106;28;20040;-64
2021/04/29 01:41:07;;;;;;;0.60;0.60;;;14.10;64.90;;;;;;5063550;28;20050;-64
2021/04/29 01:43:38;;;;;;;0.90;0.90;;;14.10;65.30;;;;;;5061830;28;20527;-64
2021/04/29 01:46:04;;;;;;;0.70;0.70;;;14.10;66.60;;;;;;5057272;28;20024;-63
2021/04/29 01:48:30;;;;;;;0.80;0.75;;;14.10;65.30;;;;;;5057686;28;20747;-64
2021/04/29 01:50:59;;;;;;;0.65;0.60;;;14.10;65.50;;;;;;5065611;28;20075;-64
2021/04/29 01:53:29;;;;;;;0.60;0.60;;;14.10;65.90;;;;;;5063147;28;20115;-65
2021/04/29 01:55:58;;;;;;;0.80;0.80;;;14.10;66.10;;;;;;5064067;28;20202;-63
2021/04/29 01:58:26;;;;;;;0.90;0.68;;;14.10;65.70;;;;;;5057383;28;20029;-62
2021/04/29 02:00:54;;;;;;;1.25;0.73;;;14.10;66.20;;;;;;5061211;28;20036;-64
2021/04/29 02:03:24;;;;;;;0.60;0.60;;;14.10;66.00;;;;;;5058352;28;20047;-64
2021/04/29 02:05:52;;;;;;;0.65;0.65;;;14.10;66.30;;;;;;5066379;28;20067;-64
2021/04/29 02:08:20;;;;;;;0.80;0.47;;;14.10;66.40;;;;;;5061991;28;20041;-64
2021/04/29 02:10:50;;;;;;;0.40;0.40;;;14.10;65.90;;;;;;5055850;28;20040;-64
2021/04/29 02:13:18;;;;;;;0.50;0.50;;;14.10;66.10;;;;;;5061855;28;20044;-64
2021/04/29 02:15:55;;;;;;;1.45;0.30;;;14.10;66.20;;;;;;5061109;28;20029;-64
2021/04/29 02:18:28;;;;;;;0.93;0.40;;;14.10;66.80;;;;;;5057159;28;20409;-64
2021/04/29 02:20:57;;;;;;;0.40;0.40;;;14.10;66.70;;;;;;5063125;28;20078;-64
2021/04/29 02:23:25;;;;;;;0.68;0.50;;;14.10;66.70;;;;;;5064165;28;20078;-64
2021/04/29 02:25:57;;;;;;;0.60;0.40;;;14.10;67.40;;;;;;5065243;28;20032;-64
2021/04/29 02:28:27;;;;;;;0.40;0.40;;;14.10;67.60;;;;;;5062700;28;20055;-63
2021/04/29 02:31:04;;;;;;;0.80;0.40;;;14.10;67.10;;;;;;5057346;28;20033;-63
2021/04/29 02:33:30;;;;;;;0.60;0.40;;;14.00;67.50;;;;;;5059795;28;20040;-65
2021/04/29 02:36:01;;;;;;;0.77;0.60;;;14.00;67.10;;;;;;5074312;28;20083;-63
2021/04/29 02:38:29;;;;;;;0.57;0.50;;;14.00;67.40;;;;;;5060195;28;20112;-64
2021/04/29 02:41:00;;;;;;;0.60;0.60;;;14.00;67.60;;;;;;5065193;28;20045;-64
2021/04/29 02:43:29;;;;;;;0.80;0.50;;;13.90;68.10;;;;;;5063821;28;20036;-63
2021/04/29 02:45:59;;;;;;;0.63;0.63;;;13.90;67.90;;;;;;5063096;28;20061;-64
2021/04/29 02:48:28;;;;;;;0.57;0.50;;;13.90;68.30;;;;;;5054706;28;20032;-64
2021/04/29 02:51:02;;;;;;;0.55;0.50;;;13.90;68.10;;;;;;5065859;28;20032;-64
2021/04/29 02:53:31;;;;;;;0.50;0.50;;;13.90;68.80;;;;;;5062674;28;20040;-63
2021/04/29 02:56:00;;;;;;;0.50;0.50;;;13.80;67.80;;;;;;5066151;28;20374;-64
2021/04/29 02:58:30;;;;;;;0.60;0.60;;;13.80;68.00;;;;;;5064224;28;20029;-65
2021/04/29 03:01:00;;;;;;;0.60;0.60;;;13.80;67.90;;;;;;5060744;28;20613;-64
2021/04/29 03:03:31;;;;;;;0.80;0.80;;;13.80;68.00;;;;;;5056616;28;20120;-63
2021/04/29 03:05:58;;;;;;;0.43;0.43;;;13.80;67.80;;;;;;5056032;28;20036;-64
2021/04/29 03:08:26;;;;;;;1.02;0.93;;;13.80;67.80;;;;;;5055781;28;20067;-63
2021/04/29 03:10:54;;;;;;;0.95;0.57;;;13.80;67.90;;;;;;5061314;28;20107;-63
2021/04/29 03:13:22;;;;;;;0.80;0.70;;;13.80;67.80;;;;;;5077706;28;20033;-64
2021/04/29 03:15:50;;;;;;;0.80;0.70;;;13.70;67.60;;;;;;5057789;28;20434;-65
2021/04/29 03:18:20;;;;;;;0.60;0.60;;;13.70;67.40;;;;;;5063283;28;20033;-65
2021/04/29 03:20:48;;;;;;;0.90;0.73;;;13.70;67.70;;;;;;5063455;28;20040;-63
2021/04/29 03:23:16;;;;;;;0.80;0.80;;;13.70;67.60;;;;;;5058569;28;20044;-63
2021/04/29 03:25:42;;;;;;;0.73;0.73;;;13.70;67.20;;;;;;5065690;28;20036;-64
2021/04/29 03:28:10;;;;;;;1.15;1.05;;;13.60;67.10;;;;;;5063160;28;20035;-64
2021/04/29 03:30:35;;;;;;;0.70;0.70;;;13.60;66.80;;;;;;5065886;28;20029;-63
2021/04/29 03:33:06;;;;;;;0.90;0.80;;;13.60;66.70;;;;;;5078266;28;20063;-63
2021/04/29 03:35:36;;;;;;;2.28;0.90;;;13.60;66.80;;;;;;5061485;28;20052;-65
2021/04/29 03:38:02;;;;;;;1.45;0.85;;;13.50;66.80;;;;;;5057963;28;20511;-62
2021/04/29 03:40:30;;;;;;;1.63;0.90;;;13.50;66.60;;;;;;5056135;28;20394;-63
2021/04/29 03:43:01;;;;;;;1.02;0.60;;;13.40;66.70;;;;;;5057319;28;20052;-63
2021/04/29 03:45:31;;;;;;;1.10;0.52;;;13.40;66.60;;;;;;5055356;28;20672;-65
2021/04/29 03:47:59;;;;;;;0.80;0.80;;;13.40;66.60;;;;;;5059418;28;20119;-64
2021/04/29 03:50:30;;;;;;;1.13;0.90;;;13.30;66.20;;;;;;5064786;28;20032;-63
2021/04/29 03:53:03;;;;;;;2.53;0.70;;;13.30;66.50;;;;;;5058642;28;20064;-64
2021/04/29 03:55:29;;;;;;;1.00;0.90;;;13.30;66.20;;;;;;5065257;28;20056;-62
2021/04/29 03:57:59;;;;;;;2.35;0.63;;;13.30;66.40;;;;;;5059001;28;20447;-63
2021/04/29 04:00:32;;;;;;;1.90;0.82;;;13.20;66.60;;;;;;5068500;28;20032;-63
2021/04/29 04:02:57;;;;;;;1.40;1.00;;;13.20;66.60;;;;;;5057660;28;20425;-63
2021/04/29 04:05:25;;;;;;;0.82;0.70;;;13.20;66.30;;;;;;5056889;28;20043;-63
2021/04/29 04:07:53;;;;;;;2.50;1.10;;;13.20;66.40;;;;;;5059921;28;20111;-63
2021/04/29 04:10:19;;;;;;;2.45;1.05;;;13.20;66.50;;;;;;5066481;28;20402;-63
2021/04/29 04:12:49;;;;;;;2.30;1.00;;;13.20;66.40;;;;;;5053982;28;20048;-63
2021/04/29 04:15:20;;;;;;;1.13;0.80;;;13.20;66.40;;;;;;5065811;28;20041;-63
2021/04/29 04:17:48;;;;;;;4.38;2.50;;;13.20;66.70;;;;;;5057907;28;20025;-63
2021/04/29 04:20:18;;;;;;;2.97;2.65;;;13.10;66.50;;;;;;5066850;28;20793;-64
2021/04/29 04:22:48;;;;;;;3.22;2.90;;;13.10;66.40;;;;;;5057058;28;20041;-63
2021/04/29 04:25:18;;;;;;;3.53;3.22;;;13.10;66.30;;;;;;5064845;28;20032;-64
2021/04/29 04:27:48;;;;;;;2.20;2.00;;;13.10;66.20;;;;;;5063229;28;20083;-64
2021/04/29 04:30:19;;;;;;;2.25;2.10;;;13.10;66.20;;;;;;5049402;28;20251;-64
2021/04/29 04:32:49;;;;;;;2.72;1.00;;;13.10;66.10;;;;;;5057581;28;20037;-62
2021/04/29 04:35:17;;;;;;;1.40;1.30;;;13.10;66.00;;;;;;5059646;28;20402;-63
2021/04/29 04:37:50;;;;;;;1.10;0.90;;;13.00;65.90;;;;;;5062565;28;20024;-63
2021/04/29 04:40:18;;;;;;;2.38;1.13;;;13.00;66.00;;;;;;5064359;28;20033;-55
2021/04/29 04:42:46;;;;;;;1.58;0.98;;;13.00;66.00;;;;;;5060963;28;20062;-64
2021/04/29 04:45:13;;;;;;;2.50;1.10;;;13.00;65.90;;;;;;5066873;28;20441;-62
2021/04/29 04:47:39;;;;;;;1.38;1.27;;;13.00;65.90;;;;;;5067948;28;20153;-64
2021/04/29 04:50:11;;;;;;;1.55;1.00;;;13.00;66.00;;;;;;5067198;28;20471;-65
2021/04/29 04:52:39;;;;;;;1.55;1.45;;;12.90;67.10;;;;;;5059943;28;20059;-64
2021/04/29 04:55:10;;;;;;;1.30;1.10;;;13.00;66.10;;;;;;5067368;28;20036;-64
2021/04/29 04:57:38;;;;;;;2.35;1.45;;;12.90;66.10;;;;;;5067523;28;20552;-66
2021/04/29 05:00:06;;;;;;;1.77;1.23;;;12.90;66.00;;;;;;5066199;28;20044;-65
2021/04/29 05:02:32;;;;;;;1.10;1.00;;;12.90;67.00;;;;;;5066242;28;20037;-63
2021/04/29 05:05:05;;;;;;;1.73;1.38;;;12.90;66.00;;;;;;5067275;28;20162;-65
2021/04/29 05:07:32;;;;;;;1.85;1.65;;;12.90;66.20;;;;;;5067571;28;20040;-64
2021/04/29 05:10:02;;;;;;;2.17;1.80;;;12.90;66.10;;;;;;5067867;28;20039;-64
2021/04/29 05:12:28;;;;;;;2.13;2.00;;;12.90;66.40;;;;;;5062791;28;20063;-63
2021/04/29 05:14:56;;;;;;;2.22;1.95;;;12.90;66.20;;;;;;5066745;28;20052;-62
2021/04/29 05:17:26;;;;;;;2.78;2.30;;;12.90;66.20;;;;;;5066154;28;20032;-63
2021/04/29 05:19:56;;;;;;;9.40;1.60;;;12.80;66.30;;;;;;5066683;28;20064;-64
2021/04/29 05:22:27;;;;;;;2.33;1.77;;;12.90;66.60;;;;;;5062588;28;20028;-60
2021/04/29 05:24:57;;;;;;;2.17;1.60;;;12.80;66.40;;;;;;5062676;28;20447;-63
2021/04/29 05:27:27;;;;;;;3.45;1.65;;;12.80;66.40;;;;;;5067463;28;20493;-63
2021/04/29 05:29:58;;;;;;;1.92;1.50;;;12.80;67.30;;;;;;5065455;28;20036;-63
2021/04/29 05:32:25;;;;;;;1.95;1.38;;;12.90;66.60;;;;;;5065708;28;20508;-63
2021/04/29 05:34:53;;;;;;;2.45;1.60;;;12.90;66.60;;;;;;5066138;28;20052;-63
2021/04/29 05:37:25;;;;;;;1.60;1.35;;;12.90;66.40;;;;;;5065229;28;20039;-63
2021/04/29 05:39:53;;;;;;;2.17;1.35;;;12.90;66.60;;;;;;5065485;28;20162;-62
2021/04/29 05:42:19;;;;;;;1.50;1.40;;;12.90;66.60;;;;;;5066164;28;20524;-63
2021/04/29 05:44:47;;;;;;;1.85;1.25;;;12.90;66.50;;;;;;5066548;28;20032;-63
2021/04/29 05:47:15;;;;;;;7.13;5.32;;;12.90;66.50;;;;;;5065450;28;20098;-63
2021/04/29 05:49:47;;;;;;;4.95;3.80;;;12.90;66.20;;;;;;5066384;28;20043;-63
2021/04/29 05:52:12;;;;;;;2.47;1.73;;;12.90;66.20;;;;;;5066173;28;20032;-63
2021/04/29 05:54:39;;;;;;;5.53;4.70;;;13.00;66.20;;;;;;5063046;28;20051;-63
2021/04/29 05:57:05;;;;;;;2.97;1.98;;;12.90;66.20;;;;;;5066945;28;20485;-63
2021/04/29 05:59:35;;;;;;;2.53;1.83;;;13.00;66.20;;;;;;5066706;28;20541;-63
2021/04/29 06:02:01;;;;;;;2.13;1.67;;;13.00;66.40;;;;;;5066153;28;20109;-64
2021/04/29 06:04:29;;;;;;;2.05;1.75;;;13.00;66.30;;;;;;5065676;28;20525;-63
2021/04/29 06:06:56;;;;;;;1.65;1.55;;;12.90;66.40;;;;;;5066744;28;20028;-63
2021/04/29 06:09:25;;;;;;;4.22;1.65;;;12.90;66.40;;;;;;5066739;28;20412;-63
2021/04/29 06:11:52;;;;;;;1.80;1.40;;;12.90;66.60;;;;;;5060381;28;20127;-63
2021/04/29 06:14:22;;;;;;;4.75;1.98;;;12.90;66.40;;;;;;5065911;28;20469;-63
2021/04/29 06:16:50;;;;;;;3.08;2.10;;;12.90;66.50;;;;;;5064809;28;20029;-63
2021/04/29 06:19:19;;;;;;;3.35;1.98;;;12.90;66.40;;;;;;5065679;28;20041;-63
2021/04/29 06:21:47;;;;;;;2.15;1.70;;;12.90;66.40;;;;;;5063674;28;20021;-61
2021/04/29 06:24:12;;;;;;;2.78;1.70;;;12.90;66.50;;;;;;5062466;28;20029;-62
2021/04/29 06:26:40;;;;;;;4.85;2.05;;;12.90;66.40;;;;;;5064326;28;20028;-63
2021/04/29 06:29:08;;;;;;;2.30;2.10;;;12.90;66.50;;;;;;5062866;28;20024;-63
2021/04/29 06:31:38;;;;;;;2.70;1.92;;;12.90;66.90;;;;;;5064550;28;20498;-63
2021/04/29 06:34:08;;;;;;;2.17;1.80;;;12.90;66.80;;;;;;5064000;28;20080;-63
2021/04/29 06:36:39;;;;;;;3.17;1.83;;;12.90;67.20;;;;;;5065039;28;20021;-63
2021/04/29 06:39:12;;;;;;;4.68;2.00;;;12.80;67.30;;;;;;5066013;28;20033;-64
2021/04/29 06:41:44;;;;;;;3.72;2.08;;;12.80;68.20;;;;;;5065350;28;20051;-63
2021/04/29 06:44:13;;;;;;;4.53;2.50;;;12.80;67.60;;;;;;5063823;28;20036;-63
2021/04/29 06:46:42;;;;;;;4.30;2.85;;;12.80;67.60;;;;;;5066358;28;20024;-64
2021/04/29 06:49:12;;;;;;;3.53;2.10;;;12.80;67.80;;;;;;5080076;28;20498;-63
2021/04/29 06:51:40;;;;;;;2.17;1.98;;;12.70;68.10;;;;;;5063306;28;20029;-62
2021/04/29 06:54:10;;;;;;;3.33;2.08;;;12.70;68.30;;;;;;5063005;28;20037;-64
2021/04/29 06:56:38;;;;;;;3.20;2.30;;;12.60;69.30;;;;;;5064438;28;20965;-63
2021/04/29 06:59:05;;;;;;;4.00;2.40;;;12.60;69.00;;;;;;5058542;28;20067;-63
2021/04/29 07:01:35;;;;;;;3.28;2.13;;;12.60;69.00;;;;;;5060322;28;20040;-64
2021/04/29 07:04:05;;;;;;;4.68;2.40;;;12.60;69.20;;;;;;5058153;28;20068;-64
2021/04/29 07:06:36;;;;;;;2.60;2.22;;;12.50;69.70;;;;;;5065200;28;20409;-64
2021/04/29 07:09:05;;;;;;;3.75;2.60;;;12.50;69.70;;;;;;5068221;28;20780;-63
2021/04/29 07:11:33;;;;;;;4.00;2.53;;;12.40;70.00;;;;;;5060771;28;20068;-63
2021/04/29 07:14:01;;;;;;;4.40;2.47;;;12.40;70.10;;;;;;5058180;28;20033;-63
2021/04/29 07:16:30;;;;;;;3.28;2.78;;;12.40;70.60;;;;;;5067443;28;20044;-64
2021/04/29 07:18:57;;;;;;;5.00;2.90;;;12.40;70.60;;;;;;5068103;28;20043;-64
2021/04/29 07:21:28;;;;;;;3.42;2.80;;;12.30;70.80;;;;;;5068095;28;20037;-64
2021/04/29 07:23:56;;;;;;;5.10;3.00;;;12.30;71.10;;;;;;5065559;28;20063;-64
2021/04/29 07:26:25;;;;;;;4.05;2.97;;;12.20;71.00;;;;;;5066713;28;20025;-64
2021/04/29 07:28:55;;;;;;;3.42;3.13;;;12.20;71.30;;;;;;5067850;28;20453;-64
2021/04/29 07:31:24;;;;;;;3.50;3.20;;;12.20;71.60;;;;;;5068252;28;20101;-64
2021/04/29 07:33:53;;;;;;;4.47;3.25;;;12.20;71.60;;;;;;5068933;28;20502;-64
2021/04/29 07:36:21;;;;;;;3.50;3.20;;;12.20;72.10;;;;;;5067517;28;20605;-63
2021/04/29 07:38:49;;;;;;;4.72;3.22;;;12.30;72.00;;;;;;5068488;28;20436;-64
2021/04/29 07:41:23;;;;;;;4.65;3.20;;;12.30;72.30;;;;;;5068985;28;20041;-64
2021/04/29 07:43:56;;;;;;;3.25;2.95;;;12.30;72.50;;;;;;5068127;28;20025;-64
2021/04/29 07:46:29;;;;;;;6.80;5.55;;;12.30;72.60;;;;;;5068858;28;20121;-65
2021/04/29 07:48:59;;;;;;;5.30;3.65;;;12.30;72.80;;;;;;5069762;28;20029;-64
2021/04/29 07:51:27;;;;;;;5.25;3.90;;;12.30;72.70;;;;;;5067123;28;20040;-64
2021/04/29 07:53:55;;;;;;;4.63;3.55;;;12.30;72.50;;;;;;5068763;28;20029;-64
2021/04/29 07:56:24;;;;;;;7.20;4.20;;;12.30;72.50;;;;;;5068099;28;20497;-63
2021/04/29 07:58:49;;;;;;;8.43;4.18;;;12.30;72.50;;;;;;5068339;28;20040;-64
2021/04/29 08:01:17;;;;;;;6.20;4.22;;;12.30;72.50;;;;;;5066808;28;20395;-64
2021/04/29 08:03:45;;;;;;;4.40;4.00;;;12.40;72.60;;;;;;5067134;28;20033;-64
2021/04/29 08:06:15;;;;;;;5.72;4.47;;;12.40;72.60;;;;;;5067338;28;20541;-64
2021/04/29 08:08:43;;;;;;;6.78;4.35;;;12.40;72.90;;;;;;5067193;28;20115;-64
2021/04/29 08:11:12;;;;;;;6.90;4.38;;;12.50;72.90;;;;;;5064698;28;20044;-64
2021/04/29 08:13:42;;;;;;;4.65;4.22;;;12.50;72.50;;;;;;5068597;28;20025;-64
2021/04/29 08:16:13;;;;;;;6.55;5.00;;;12.60;72.60;;;;;;5062681;28;20280;-64
2021/04/29 08:18:43;;;;;;;7.32;4.43;;;12.60;72.90;;;;;;5067063;28;20334;-64
2021/04/29 08:21:14;;;;;;;4.47;4.07;;;12.70;72.50;;;;;;5066632;28;20036;-64
2021/04/29 08:23:42;;;;;;;8.57;5.25;;;12.80;72.50;;;;;;5057887;28;20075;-64
2021/04/29 08:26:07;;;;;;;8.40;4.85;;;12.80;72.10;;;;;;5066922;28;20465;-64
2021/04/29 08:28:37;;;;;;;7.35;5.00;;;12.80;72.00;;;;;;5065151;28;20056;-64
2021/04/29 08:31:08;;;;;;;7.20;4.95;;;12.90;72.00;;;;;;5066805;28;20032;-64
2021/04/29 08:33:36;;;;;;;8.05;4.95;;;12.90;71.60;;;;;;5067925;28;20036;-64
2021/04/29 08:36:02;;;;;;;10.45;4.50;;;13.00;71.10;;;;;;5066565;28;20063;-64
2021/04/29 08:38:34;;;;;;;6.13;4.70;;;13.00;70.60;;;;;;5064534;28;20060;-63
2021/04/29 08:41:05;;;;;;;5.43;4.50;;;13.00;70.70;;;;;;5064522;28;20390;-64
2021/04/29 08:43:33;;;;;;;6.05;4.75;;;13.00;70.50;;;;;;5059489;28;20036;-62
2021/04/29 08:46:03;;;;;;;6.03;4.63;;;13.00;70.30;;;;;;5066828;28;20036;-64
2021/04/29 08:48:29;;;;;;;6.25;4.53;;;13.00;70.40;;;;;;5064836;28;20105;-64
2021/04/29 08:50:55;;;;;;;9.48;4.72;;;13.00;69.90;;;;;;5068302;28;20056;-63
2021/04/29 08:53:25;;;;;;;5.80;4.28;;;13.00;69.60;;;;;;5063937;28;20033;-64
2021/04/29 08:55:53;;;;;;;6.53;4.70;;;13.00;69.30;;;;;;5066744;28;20040;-64
2021/04/29 08:58:21;;;;;;;6.70;4.85;;;13.00;69.20;;;;;;5067067;28;20244;-63
2021/04/29 09:01:00;;;;;;;5.20;4.70;;;13.00;69.20;;;;;;5066113;28;20359;-64
2021/04/29 09:03:32;;;;;;;6.95;4.55;;;13.00;69.20;;;;;;5063737;28;20033;-64
2021/04/29 09:06:08;;;;;;;6.95;4.22;;;13.00;69.30;;;;;;5066811;28;20033;-64
2021/04/29 09:08:38;;;;;;;7.65;4.72;;;13.00;69.40;;;;;;5065576;28;20032;-64
2021/04/29 09:11:17;;;;;;;7.40;4.45;;;13.00;69.30;;;;;;5062465;28;20180;-64
2021/04/29 09:14:02;;;;;;;6.10;4.43;;;13.10;69.40;;;;;;5066377;28;20075;-64
2021/04/29 09:16:40;;;;;;;6.78;4.32;;;13.20;69.40;;;;;;5064390;28;20119;-64
2021/04/29 09:19:23;;;;;;;5.10;4.55;;;13.20;68.90;;;;;;5065270;28;20029;-64
2021/04/29 09:21:49;;;;;;;6.57;4.25;;;13.30;68.60;;;;;;5063765;28;20503;-64
2021/04/29 09:24:17;;;;;;;5.40;4.20;;;13.30;68.10;;;;;;5063258;28;20106;-63
2021/04/29 09:26:47;;;;;;;5.63;4.53;;;13.30;67.70;;;;;;5065848;28;20029;-64
2021/04/29 09:29:16;;;;;;;6.75;4.57;;;13.40;67.40;;;;;;5063860;28;20094;-64
2021/04/29 09:31:45;;;;;;;6.47;5.05;;;13.40;67.30;;;;;;5065351;28;20028;-64
2021/04/29 09:34:18;;;;;;;5.68;4.70;;;13.40;67.40;;;;;;5065833;28;20032;-64
2021/04/29 09:36:46;;;;;;;5.53;4.97;;;13.40;67.30;;;;;;5062247;28;20052;-64
2021/04/29 09:39:25;;;;;;;8.77;4.80;;;13.40;67.50;;;;;;5065743;28;20036;-63
2021/04/29 09:41:53;;;;;;;5.90;4.78;;;13.40;67.60;;;;;;5064119;28;20032;-64
2021/04/29 09:44:20;;;;;;;4.97;4.47;;;13.50;67.40;;;;;;5066437;28;20032;-64
2021/04/29 09:46:55;;;;;;;6.65;4.57;;;13.50;67.20;;;;;;5065171;28;20461;-64
2021/04/29 09:49:29;;;;;;;5.25;4.18;;;13.50;66.60;;;;;;5066489;28;20032;-64
2021/04/29 09:52:00;;;;;;;5.07;4.33;;;13.50;66.30;;;;;;5057792;28;20029;-64
2021/04/29 09:54:37;;;;;;;7.05;4.43;;;13.60;66.40;;;;;;5064606;28;20052;-64
2021/04/29 09:57:08;;;;;;;5.07;4.25;;;13.60;66.10;;;;;;5063724;28;20032;-64
2021/04/29 09:59:45;;;;;;;8.52;4.65;;;13.60;65.70;;;;;;5066044;28;20159;-64
2021/04/29 10:02:14;;;;;;;7.15;4.63;;;13.60;66.20;;;;;;5062314;28;20021;-64
2021/04/29 10:04:44;;;;;;;5.45;4.20;;;13.70;65.50;;;;;;5064669;28;20048;-63
2021/04/29 10:07:17;;;;;;;7.10;4.80;;;13.70;65.30;;;;;;5065608;28;20041;-64
2021/04/29 10:09:49;;;;;;;8.57;5.65;;;13.70;65.00;;;;;;5081984;28;20033;-62
2021/04/29 10:12:23;;;;;;;8.40;6.18;;;13.70;65.00;;;;;;5061492;28;20539;-62
2021/04/29 10:14:51;;;;;;;5.35;4.53;;;13.70;65.10;;;;;;5064704;28;20451;-64
2021/04/29 10:17:20;;;;;;;6.80;4.75;;;13.70;65.00;;;;;;5065741;28;20120;-63
2021/04/29 10:19:53;;;;;;;8.02;4.72;;;13.80;64.80;;;;;;5066047;28;20421;-63
2021/04/29 10:22:24;;;;;;;4.68;4.13;;;13.80;64.30;;;;;;5065936;28;20024;-64
2021/04/29 10:24:49;;;;;;;6.25;4.47;;;13.80;64.10;;;;;;5066041;28;20123;-64
2021/04/29 10:27:32;;;;;;;7.35;4.30;;;13.80;64.30;;;;;;5064483;28;20426;-63
2021/04/29 10:30:05;;;;;;;6.13;4.10;;;13.90;64.50;;;;;;5066692;28;20029;-63
2021/04/29 10:32:37;;;;;;;5.63;4.05;;;13.90;64.20;;;;;;5065470;28;20082;-64
2021/04/29 10:35:16;;;;;;;6.05;3.80;;;13.90;64.20;;;;;;5065180;28;20570;-63
2021/04/29 10:38:05;;;;;;;7.43;3.95;;;14.00;64.30;;;;;;5065578;28;20520;-61
2021/04/29 10:40:34;;;;;;;7.47;4.28;;;14.00;63.50;;;;;;5065837;28;20040;-64
2021/04/29 10:43:03;;;;;;;5.47;3.60;;;14.00;63.70;;;;;;5068553;28;20518;-64
2021/04/29 10:45:30;;;;;;;4.97;4.05;;;14.10;63.70;;;;;;5068580;28;20077;-64
2021/04/29 10:48:06;;;;;;;5.50;4.10;;;14.10;63.40;;;;;;5068559;28;20459;-64
2021/04/29 10:51:04;;;;;;;6.22;4.15;;;14.10;63.10;;;;;;5068789;28;20032;-64
2021/04/29 10:53:31;;;;;;;8.68;4.50;;;14.10;63.10;;;;;;5068567;28;20115;-61
2021/04/29 10:56:11;;;;;;;7.97;4.45;;;14.20;63.40;;;;;;5068155;28;20183;-62
2021/04/29 10:58:37;;;;;;;6.80;4.20;;;14.20;63.20;;;;;;5065053;28;20326;-64
2021/04/29 11:01:16;;;;;;;6.68;4.20;;;14.20;63.10;;;;;;5069007;28;20033;-64
2021/04/29 11:03:53;;;;;;;6.18;4.43;;;14.20;62.80;;;;;;5068331;28;20037;-64
2021/04/29 11:06:32;;;;;;;6.25;4.65;;;14.30;63.00;;;;;;5068862;28;20104;-64
2021/04/29 11:09:03;;;;;;;4.63;4.07;;;14.30;63.10;;;;;;5063867;28;20029;-63
2021/04/29 11:11:35;;;;;;;10.05;4.65;;;14.40;63.40;;;;;;5063944;28;20472;-64
2021/04/29 11:14:09;;;;;;;5.82;4.80;;;14.40;63.20;;;;;;5067186;28;20514;-64
2021/04/29 11:16:47;;;;;;;5.63;4.40;;;14.50;63.10;;;;;;5066793;28;20537;-64
2021/04/29 11:19:39;;;;;;;6.35;4.75;;;14.60;63.00;;;;;;5067059;28;20456;-64
2021/04/29 11:22:12;;;;;;;6.80;4.78;;;14.60;62.40;;;;;;5068131;28;20090;-64
2021/04/29 11:24:49;;;;;;;5.90;4.50;;;14.70;63.60;;;;;;5064480;28;20043;-64
2021/04/29 11:27:35;;;;;;;8.02;4.75;;;14.70;62.60;;;;;;5067464;28;20033;-63
2021/04/29 11:30:12;;;;;;;6.68;5.10;;;14.80;62.50;;;;;;5061375;28;20028;-64
2021/04/29 11:32:39;;;;;;;6.18;4.50;;;14.80;62.60;;;;;;5067310;28;20036;-64
2021/04/29 11:35:28;;;;;;;5.95;5.18;;;14.80;62.70;;;;;;5066668;28;20083;-65
2021/04/29 11:38:02;;;;;;;8.43;4.88;;;14.90;62.60;;;;;;5066748;28;20524;-64
2021/04/29 11:40:32;;;;;;;6.67;4.87;;;14.90;62.80;;;;;;5067528;28;20421;-64
2021/04/29 11:43:01;;;;;;;5.22;4.40;;;15.00;62.90;;;;;;5068919;28;20299;-64
2021/04/29 11:45:29;;;;;;;6.35;4.75;;;15.10;62.70;;;;;;5068299;28;20032;-64
2021/04/29 11:48:15;;;;;;;6.38;4.68;;;15.20;62.40;;;;;;5068588;28;20025;-64
2021/04/29 11:51:06;;;;;;;6.05;4.60;;;15.30;62.10;;;;;;5067821;28;20044;-64
2021/04/29 11:53:36;;;;;;;7.72;4.80;;;15.30;61.20;;;;;;5069046;28;20456;-64
2021/04/29 11:56:04;;;;;;;6.53;4.97;;;15.40;60.40;;;;;;5067771;28;20036;-64
2021/04/29 11:58:32;;;;;;;7.90;5.10;;;15.40;60.10;;;;;;5066264;28;20044;-64
2021/04/29 12:01:01;;;;;;;6.55;4.88;;;15.40;60.00;;;;;;5066624;28;20056;-64
2021/04/29 12:03:28;;;;;;;6.35;4.88;;;15.40;59.90;;;;;;5066913;28;20036;-64
2021/04/29 12:05:58;;;;;;;5.85;4.40;;;15.40;59.90;;;;;;5067174;28;20453;-64
2021/04/29 12:08:33;;;;;;;7.72;4.97;;;15.40;60.70;;;;;;5062275;28;20040;-64
2021/04/29 12:11:01;;;;;;;;;;;15.40;59.50;;;;;;5064972;28;20036;-64
2021/04/29 12:13:35;;;;;;;5.10;4.60;;;15.50;59.40;;;;;;5065492;28;20385;-64
2021/04/29 12:16:05;;;;;;;6.60;4.85;;;15.50;59.20;;;;;;5066704;28;21045;-64
2021/04/29 12:18:32;;;;;;;7.97;5.15;;;15.60;59.20;;;;;;5065870;28;20036;-64
2021/04/29 12:21:01;;;;;;;7.15;5.30;;;15.60;59.20;;;;;;5082676;28;20038;-64
2021/04/29 12:23:31;;;;;;;8.77;5.82;;;15.70;59.10;;;;;;5066744;28;20028;-64
2021/04/29 12:26:03;;;;;;;6.63;4.88;;;15.70;58.60;;;;;;5066738;28;20032;-64
2021/04/29 12:28:40;;;;;;;6.28;5.28;;;15.70;58.60;;;;;;5065088;28;20043;-64
2021/04/29 12:31:20;;;;;;;8.48;5.15;;;15.80;58.50;;;;;;5067012;28;20560;-64
2021/04/29 12:33:53;;;;;;;8.68;5.63;;;15.80;58.00;;;;;;5067426;28;20033;-64
2021/04/29 12:36:21;;;;;;;6.82;5.30;;;15.80;57.70;;;;;;5064627;28;20185;-64
2021/04/29 12:38:54;;;;;;;5.88;4.82;;;15.90;58.10;;;;;;5067357;28;20085;-64
2021/04/29 12:41:24;;;;;;;7.57;5.28;;;15.90;58.10;;;;;;5065426;28;20041;-64
2021/04/29 12:44:03;;;;;;;6.35;4.63;;;15.90;58.00;;;;;;5064257;28;20033;-64
2021/04/29 12:46:42;;;;;;;6.35;4.82;;;16.00;57.90;;;;;;5063079;28;20036;-64
2021/04/29 12:49:13;;;;;;;6.45;4.90;;;16.00;57.90;;;;;;5065111;28;20058;-64
2021/04/29 12:51:42;;;;;;;6.47;5.43;;;16.00;57.90;;;;;;5044607;28;20028;-64
2021/04/29 12:54:13;;;;;;;8.30;5.28;;;16.00;57.80;;;;;;5054375;28;20708;-64
2021/04/29 12:56:46;;;;;;;5.20;4.63;;;15.90;57.80;;;;;;5055340;28;20535;-64
2021/04/29 12:59:24;;;;;;;12.48;5.20;;;15.90;57.90;;;;;;5055019;28;20047;-64
2021/04/29 13:02:10;;;;;;;7.90;5.07;;;15.90;58.10;;;;;;5053026;28;20518;-63
2021/04/29 13:04:38;;;;;;;9.60;5.63;;;15.80;58.10;;;;;;5051218;28;20029;-64
2021/04/29 13:07:05;;;;;;;8.18;5.40;;;15.90;58.30;;;;;;5054120;28;20385;-64